JBU363 KBOS-TLPL
Flight info
| Callsign | JBU363 |
|---|---|
| Flight time | N/A |
| Altitude | 34000 |
| Route | SSOXS7 SSOXS Q167 SPDEY/N0459F330 Y489 OHRYN/N0460F340 Y489 BEHHR/M079F340 Y489 RESQU/M079F330 DCT SKPPR L455 BEXUM/M079F350 L455 KINCH/N0464F350 L455 LENNT DCT ELOPO UB520 ANU UA312 FOF A324 BNE |
| Aircraft | A21N/M-SDE3FGHIRWY/LB1 |
Departure
| Time | 2026-05-06 18:20 |
|---|---|
| Airport | Boston Logan International Airport (KBOS) |
Arrival
| Time | N/A |
|---|---|
| Airport | Hewanorra International Airport (TLPL) |
| Time | Latitude | Longitude | Altitude | Speed | Heading |
|---|---|---|---|---|---|
| 2026-05-06 18:01 | 42.36927 | -71.01724 | 17 ft | 0 kts | 335° |
| 2026-05-06 18:12 | 42.36915 | -71.01717 | 17 ft | 2 kts | 335° |
| 2026-05-06 18:12 | 42.36901 | -71.01708 | 17 ft | 2 kts | 335° |
| 2026-05-06 18:12 | 42.36887 | -71.01700 | 17 ft | 2 kts | 335° |
| 2026-05-06 18:13 | 42.36873 | -71.01691 | 17 ft | 2 kts | 351° |
| 2026-05-06 18:13 | 42.36858 | -71.01692 | 17 ft | 2 kts | 15° |
| 2026-05-06 18:13 | 42.36852 | -71.01695 | 17 ft | 1 kts | 25° |
| 2026-05-06 18:13 | 42.36849 | -71.01697 | 17 ft | 0 kts | 22° |
| 2026-05-06 18:15 | 42.36857 | -71.01693 | 17 ft | 2 kts | 21° |
| 2026-05-06 18:15 | 42.36877 | -71.01680 | 17 ft | 4 kts | 27° |
| 2026-05-06 18:16 | 42.36906 | -71.01656 | 17 ft | 5 kts | 32° |
| 2026-05-06 18:16 | 42.36953 | -71.01617 | 17 ft | 12 kts | 33° |
| 2026-05-06 18:16 | 42.36977 | -71.01539 | 17 ft | 10 kts | 112° |
| 2026-05-06 18:16 | 42.36920 | -71.01445 | 17 ft | 15 kts | 134° |
| 2026-05-06 18:17 | 42.36847 | -71.01345 | 17 ft | 12 kts | 125° |
| 2026-05-06 18:17 | 42.36865 | -71.01248 | 17 ft | 11 kts | 44° |
| 2026-05-06 18:17 | 42.36950 | -71.01150 | 17 ft | 24 kts | 40° |
| 2026-05-06 18:17 | 42.37099 | -71.01037 | 15 ft | 24 kts | 26° |
| 2026-05-06 18:18 | 42.37221 | -71.00957 | 14 ft | 15 kts | 26° |
| 2026-05-06 18:18 | 42.37347 | -71.00884 | 14 ft | 22 kts | 20° |
| 2026-05-06 18:18 | 42.37506 | -71.00806 | 14 ft | 26 kts | 20° |
| 2026-05-06 18:18 | 42.37683 | -71.00720 | 14 ft | 27 kts | 19° |
| 2026-05-06 18:19 | 42.37819 | -71.00650 | 14 ft | 10 kts | 37° |
| 2026-05-06 18:19 | 42.37830 | -71.00554 | 14 ft | 12 kts | 105° |
| 2026-05-06 18:19 | 42.37753 | -71.00489 | 14 ft | 15 kts | 198° |
| 2026-05-06 18:19 | 42.37535 | -71.00593 | 14 ft | 64 kts | 200° |
| 2026-05-06 18:20 | 42.36899 | -71.00903 | 17 ft | 125 kts | 200° |
| 2026-05-06 18:20 | 42.35940 | -71.01364 | 217 ft | 155 kts | 199° |
| 2026-05-06 18:20 | 42.34947 | -71.01842 | 847 ft | 155 kts | 197° |
| 2026-05-06 18:20 | 42.33882 | -71.01822 | 1468 ft | 165 kts | 162° |
| 2026-05-06 18:21 | 42.32998 | -71.00742 | 2022 ft | 182 kts | 137° |
| 2026-05-06 18:21 | 42.32262 | -70.99255 | 2316 ft | 198 kts | 134° |
| 2026-05-06 18:21 | 42.31480 | -70.97650 | 2622 ft | 214 kts | 132° |
| 2026-05-06 18:21 | 42.31020 | -70.95618 | 2961 ft | 248 kts | 99° |
| 2026-05-06 18:22 | 42.31291 | -70.93189 | 3232 ft | 276 kts | 84° |
| 2026-05-06 18:22 | 42.31746 | -70.90591 | 3577 ft | 293 kts | 83° |
| 2026-05-06 18:22 | 42.32207 | -70.87859 | 4070 ft | 303 kts | 84° |
| 2026-05-06 18:22 | 42.32645 | -70.85072 | 4654 ft | 305 kts | 85° |
| 2026-05-06 18:23 | 42.33054 | -70.82269 | 5020 ft | 307 kts | 88° |
| 2026-05-06 18:23 | 42.33064 | -70.79454 | 5644 ft | 296 kts | 111° |
| 2026-05-06 18:23 | 42.32391 | -70.76897 | 6426 ft | 284 kts | 125° |
| 2026-05-06 18:23 | 42.31545 | -70.74536 | 7201 ft | 284 kts | 127° |
| 2026-05-06 18:24 | 42.30671 | -70.72133 | 7951 ft | 287 kts | 127° |
| 2026-05-06 18:24 | 42.29776 | -70.69790 | 8599 ft | 282 kts | 135° |
| 2026-05-06 18:24 | 42.28428 | -70.68034 | 9250 ft | 262 kts | 159° |
| 2026-05-06 18:24 | 42.26786 | -70.67133 | 9911 ft | 253 kts | 171° |
| 2026-05-06 18:25 | 42.25101 | -70.66393 | 10430 ft | 260 kts | 171° |
| 2026-05-06 18:25 | 42.23336 | -70.65621 | 10692 ft | 276 kts | 170° |
| 2026-05-06 18:25 | 42.21458 | -70.64780 | 10929 ft | 292 kts | 169° |
| 2026-05-06 18:25 | 42.19488 | -70.63886 | 11195 ft | 307 kts | 169° |
| 2026-05-06 18:26 | 42.17415 | -70.62940 | 11457 ft | 321 kts | 168° |
| 2026-05-06 18:26 | 42.15233 | -70.62175 | 11701 ft | 327 kts | 179° |
| 2026-05-06 18:26 | 42.12947 | -70.62134 | 11950 ft | 331 kts | 191° |
| 2026-05-06 18:26 | 42.10708 | -70.62806 | 12384 ft | 332 kts | 201° |
| 2026-05-06 18:27 | 42.08497 | -70.63755 | 12919 ft | 336 kts | 201° |
| 2026-05-06 18:27 | 42.06276 | -70.64719 | 13414 ft | 339 kts | 202° |
| 2026-05-06 18:27 | 42.04020 | -70.65706 | 13909 ft | 342 kts | 201° |
| 2026-05-06 18:27 | 42.01749 | -70.66700 | 14383 ft | 346 kts | 202° |
| 2026-05-06 18:28 | 41.99472 | -70.67700 | 14857 ft | 349 kts | 202° |
| 2026-05-06 18:28 | 41.97154 | -70.68690 | 15321 ft | 353 kts | 200° |
| 2026-05-06 18:28 | 41.94757 | -70.69511 | 15766 ft | 358 kts | 198° |
| 2026-05-06 18:28 | 41.92313 | -70.70300 | 16157 ft | 362 kts | 198° |
| 2026-05-06 18:29 | 41.89848 | -70.71092 | 16547 ft | 366 kts | 198° |
| 2026-05-06 18:29 | 41.87380 | -70.71893 | 16998 ft | 369 kts | 198° |
| 2026-05-06 18:29 | 41.84877 | -70.72710 | 17414 ft | 372 kts | 198° |
| 2026-05-06 18:29 | 41.82351 | -70.73541 | 17806 ft | 375 kts | 198° |
| 2026-05-06 18:30 | 41.79809 | -70.74375 | 18180 ft | 379 kts | 199° |
| 2026-05-06 18:30 | 41.77264 | -70.75214 | 18572 ft | 381 kts | 199° |
| 2026-05-06 18:30 | 41.74652 | -70.76074 | 18962 ft | 384 kts | 199° |
| 2026-05-06 18:30 | 41.72076 | -70.76926 | 19308 ft | 387 kts | 199° |
| 2026-05-06 18:31 | 41.69431 | -70.77799 | 19684 ft | 389 kts | 198° |
| 2026-05-06 18:31 | 41.66811 | -70.78662 | 20045 ft | 392 kts | 199° |
| 2026-05-06 18:31 | 41.64147 | -70.79539 | 20392 ft | 394 kts | 199° |
| 2026-05-06 18:31 | 41.61516 | -70.80403 | 20753 ft | 396 kts | 199° |
| 2026-05-06 18:32 | 41.58830 | -70.81289 | 21073 ft | 398 kts | 199° |
| 2026-05-06 18:32 | 41.56119 | -70.82182 | 21395 ft | 401 kts | 199° |
| 2026-05-06 18:32 | 41.53405 | -70.83073 | 21670 ft | 404 kts | 199° |
| 2026-05-06 18:32 | 41.50685 | -70.83966 | 21973 ft | 406 kts | 198° |
| 2026-05-06 18:33 | 41.47946 | -70.84863 | 22304 ft | 407 kts | 198° |
| 2026-05-06 18:33 | 41.45195 | -70.85763 | 22603 ft | 409 kts | 198° |
| 2026-05-06 18:33 | 41.42437 | -70.86668 | 22901 ft | 411 kts | 198° |
| 2026-05-06 18:33 | 41.39666 | -70.87573 | 23147 ft | 414 kts | 198° |
| 2026-05-06 18:34 | 41.36858 | -70.88488 | 23410 ft | 416 kts | 199° |
| 2026-05-06 18:34 | 41.34042 | -70.89404 | 23696 ft | 417 kts | 198° |
| 2026-05-06 18:34 | 41.31214 | -70.90325 | 23955 ft | 419 kts | 199° |
| 2026-05-06 18:34 | 41.28389 | -70.91245 | 24234 ft | 421 kts | 199° |
| 2026-05-06 18:35 | 41.25529 | -70.92175 | 24501 ft | 422 kts | 199° |
| 2026-05-06 18:35 | 41.22678 | -70.93100 | 24787 ft | 423 kts | 199° |
| 2026-05-06 18:35 | 41.19823 | -70.94027 | 25011 ft | 426 kts | 199° |
| 2026-05-06 18:35 | 41.16959 | -70.94958 | 25243 ft | 427 kts | 199° |
| 2026-05-06 18:36 | 41.14055 | -70.95901 | 25500 ft | 429 kts | 199° |
| 2026-05-06 18:36 | 41.11151 | -70.96842 | 25704 ft | 431 kts | 200° |
| 2026-05-06 18:36 | 41.08252 | -70.97780 | 25901 ft | 433 kts | 200° |
| 2026-05-06 18:36 | 41.05331 | -70.98724 | 26250 ft | 432 kts | 200° |
| 2026-05-06 18:37 | 41.02401 | -70.99667 | 26622 ft | 430 kts | 200° |
| 2026-05-06 18:37 | 40.99530 | -71.00593 | 26900 ft | 430 kts | 200° |
| 2026-05-06 18:37 | 40.96598 | -71.01540 | 27179 ft | 430 kts | 201° |
| 2026-05-06 18:37 | 40.93695 | -71.02474 | 27425 ft | 431 kts | 201° |
| 2026-05-06 18:38 | 40.90774 | -71.03416 | 27728 ft | 431 kts | 201° |
| 2026-05-06 18:38 | 40.87908 | -71.04337 | 28026 ft | 430 kts | 201° |
| 2026-05-06 18:38 | 40.84995 | -71.05271 | 28330 ft | 430 kts | 201° |
| 2026-05-06 18:38 | 40.82097 | -71.06200 | 28597 ft | 431 kts | 201° |
| 2026-05-06 18:39 | 40.79153 | -71.07148 | 28872 ft | 431 kts | 201° |
| 2026-05-06 18:39 | 40.76263 | -71.08075 | 29181 ft | 431 kts | 201° |
| 2026-05-06 18:39 | 40.73346 | -71.09008 | 29511 ft | 430 kts | 202° |
| 2026-05-06 18:40 | 40.67550 | -71.10860 | 30041 ft | 431 kts | 202° |
| 2026-05-06 18:40 | 40.64643 | -71.11788 | 30333 ft | 431 kts | 202° |
| 2026-05-06 18:40 | 40.61742 | -71.12713 | 30648 ft | 430 kts | 202° |
| 2026-05-06 18:40 | 40.58835 | -71.13640 | 30994 ft | 428 kts | 202° |
| 2026-05-06 18:41 | 40.55976 | -71.14548 | 31359 ft | 426 kts | 202° |
| 2026-05-06 18:41 | 40.53074 | -71.15472 | 31636 ft | 426 kts | 203° |
| 2026-05-06 18:41 | 40.50223 | -71.16379 | 31915 ft | 425 kts | 203° |
| 2026-05-06 18:41 | 40.47349 | -71.17292 | 32176 ft | 426 kts | 203° |
| 2026-05-06 18:42 | 40.44451 | -71.18214 | 32375 ft | 427 kts | 203° |
| 2026-05-06 18:42 | 40.41599 | -71.19120 | 32616 ft | 427 kts | 203° |
| 2026-05-06 18:42 | 40.38680 | -71.20043 | 32906 ft | 426 kts | 204° |
| 2026-05-06 18:42 | 40.35815 | -71.20946 | 33137 ft | 427 kts | 204° |
| 2026-05-06 18:43 | 40.32934 | -71.21863 | 33369 ft | 427 kts | 204° |
| 2026-05-06 18:43 | 40.30043 | -71.22776 | 33604 ft | 427 kts | 204° |
| 2026-05-06 18:43 | 40.27185 | -71.23678 | 33807 ft | 427 kts | 204° |
| 2026-05-06 18:43 | 40.24298 | -71.24586 | 33954 ft | 428 kts | 204° |
| 2026-05-06 18:44 | 40.21413 | -71.25496 | 33949 ft | 424 kts | 204° |
| 2026-05-06 18:44 | 40.15628 | -71.27322 | 33963 ft | 427 kts | 204° |
| 2026-05-06 18:45 | 40.09864 | -71.29134 | 33977 ft | 431 kts | 204° |
| 2026-05-06 18:45 | 40.04046 | -71.30961 | 33986 ft | 432 kts | 204° |
| 2026-05-06 18:46 | 39.98210 | -71.32787 | 33986 ft | 429 kts | 204° |
| 2026-05-06 18:46 | 39.92379 | -71.34608 | 33982 ft | 430 kts | 204° |
| 2026-05-06 18:47 | 39.86573 | -71.36417 | 33983 ft | 432 kts | 205° |
| 2026-05-06 18:47 | 39.80752 | -71.38231 | 33985 ft | 429 kts | 204° |
| 2026-05-06 18:48 | 39.74933 | -71.40043 | 33998 ft | 433 kts | 204° |
| 2026-05-06 18:48 | 39.69098 | -71.41853 | 33984 ft | 433 kts | 205° |
| 2026-05-06 18:49 | 39.63225 | -71.43672 | 33993 ft | 434 kts | 205° |
| 2026-05-06 18:49 | 39.57342 | -71.45492 | 33995 ft | 435 kts | 205° |
| 2026-05-06 18:50 | 39.51491 | -71.47298 | 33995 ft | 436 kts | 205° |
| 2026-05-06 18:50 | 39.45626 | -71.49102 | 33995 ft | 433 kts | 205° |
| 2026-05-06 18:51 | 39.39747 | -71.50911 | 34250 ft | 436 kts | 205° |
| 2026-05-06 18:51 | 39.36778 | -71.51821 | 34578 ft | 434 kts | 205° |
| 2026-05-06 18:51 | 39.33870 | -71.52711 | 34702 ft | 436 kts | 205° |
| 2026-05-06 18:51 | 39.30914 | -71.53621 | 34830 ft | 438 kts | 205° |
| 2026-05-06 18:52 | 39.27947 | -71.54531 | 35035 ft | 438 kts | 205° |
| 2026-05-06 18:52 | 39.24965 | -71.55371 | 35227 ft | 442 kts | 202° |
| 2026-05-06 18:52 | 39.21915 | -71.56011 | 35378 ft | 449 kts | 200° |
| 2026-05-06 18:52 | 39.18790 | -71.56427 | 35633 ft | 453 kts | 196° |
| 2026-05-06 18:53 | 39.15622 | -71.56615 | 35785 ft | 459 kts | 193° |
| 2026-05-06 18:53 | 39.09146 | -71.56361 | 35980 ft | 469 kts | 189° |
| 2026-05-06 18:54 | 39.02638 | -71.55938 | 36005 ft | 471 kts | 189° |
| 2026-05-06 18:54 | 38.96070 | -71.55530 | 36017 ft | 472 kts | 189° |
| 2026-05-06 18:55 | 38.89538 | -71.55131 | 36013 ft | 475 kts | 188° |
| 2026-05-06 18:55 | 38.82928 | -71.54731 | 36019 ft | 477 kts | 188° |
| 2026-05-06 18:56 | 38.76323 | -71.54330 | 36017 ft | 473 kts | 188° |
| 2026-05-06 18:56 | 38.69745 | -71.53934 | 36017 ft | 473 kts | 189° |
| 2026-05-06 18:57 | 38.63162 | -71.53540 | 36015 ft | 475 kts | 188° |
| 2026-05-06 18:57 | 38.56551 | -71.53142 | 36027 ft | 477 kts | 188° |
| 2026-05-06 18:58 | 38.49936 | -71.52675 | 36034 ft | 481 kts | 187° |
| 2026-05-06 18:58 | 38.43258 | -71.52138 | 36037 ft | 480 kts | 187° |
| 2026-05-06 18:59 | 38.36609 | -71.51604 | 36032 ft | 477 kts | 187° |
| 2026-05-06 18:59 | 38.29984 | -71.51087 | 36031 ft | 480 kts | 187° |
| 2026-05-06 19:00 | 38.23276 | -71.50564 | 36038 ft | 483 kts | 186° |
| 2026-05-06 19:00 | 38.16601 | -71.50042 | 36036 ft | 483 kts | 187° |
| 2026-05-06 19:01 | 38.09908 | -71.49522 | 36037 ft | 483 kts | 186° |
| 2026-05-06 19:01 | 38.03166 | -71.48995 | 36049 ft | 484 kts | 186° |
| 2026-05-06 19:02 | 37.96482 | -71.48473 | 36043 ft | 485 kts | 187° |
| 2026-05-06 19:02 | 37.89778 | -71.47954 | 36046 ft | 482 kts | 186° |
| 2026-05-06 19:03 | 37.83039 | -71.47439 | 36050 ft | 488 kts | 186° |
| 2026-05-06 19:03 | 37.76270 | -71.46907 | 36058 ft | 485 kts | 186° |
| 2026-05-06 19:04 | 37.69509 | -71.46390 | 36053 ft | 488 kts | 186° |
| 2026-05-06 19:04 | 37.62732 | -71.45865 | 36063 ft | 489 kts | 185° |
| 2026-05-06 19:05 | 37.55956 | -71.45303 | 36065 ft | 490 kts | 184° |
| 2026-05-06 19:05 | 37.49184 | -71.43961 | 36063 ft | 501 kts | 175° |
| 2026-05-06 19:06 | 37.42459 | -71.41406 | 36068 ft | 511 kts | 166° |
| 2026-05-06 19:06 | 37.35926 | -71.37734 | 36067 ft | 516 kts | 160° |
| 2026-05-06 19:07 | 37.29442 | -71.33825 | 36079 ft | 516 kts | 160° |
| 2026-05-06 19:07 | 37.22974 | -71.29965 | 36084 ft | 515 kts | 160° |
| 2026-05-06 19:08 | 37.16501 | -71.26137 | 36086 ft | 516 kts | 161° |
| 2026-05-06 19:08 | 37.10009 | -71.22310 | 36095 ft | 517 kts | 160° |
| 2026-05-06 19:09 | 37.03506 | -71.18496 | 36101 ft | 520 kts | 160° |
| 2026-05-06 19:09 | 36.96935 | -71.14633 | 36105 ft | 519 kts | 160° |
| 2026-05-06 19:10 | 36.90432 | -71.10822 | 36099 ft | 518 kts | 160° |
| 2026-05-06 19:10 | 36.83910 | -71.07015 | 36104 ft | 519 kts | 160° |
| 2026-05-06 19:11 | 36.77382 | -71.03202 | 36113 ft | 518 kts | 160° |
| 2026-05-06 19:11 | 36.70828 | -70.99393 | 36114 ft | 522 kts | 160° |
| 2026-05-06 19:12 | 36.64311 | -70.95598 | 36113 ft | 520 kts | 160° |
| 2026-05-06 19:12 | 36.57748 | -70.91792 | 36125 ft | 521 kts | 159° |
| 2026-05-06 19:13 | 36.51167 | -70.87990 | 36121 ft | 523 kts | 160° |
| 2026-05-06 19:13 | 36.44579 | -70.84178 | 36115 ft | 520 kts | 159° |
| 2026-05-06 19:13 | 36.41356 | -70.82315 | 35863 ft | 516 kts | 159° |
| 2026-05-06 19:14 | 36.38081 | -70.80424 | 35292 ft | 515 kts | 159° |
| 2026-05-06 19:14 | 36.34835 | -70.78557 | 35130 ft | 517 kts | 159° |
| 2026-05-06 19:14 | 36.31573 | -70.76685 | 35118 ft | 519 kts | 159° |
| 2026-05-06 19:15 | 36.25017 | -70.72920 | 35128 ft | 521 kts | 158° |
| 2026-05-06 19:15 | 36.18480 | -70.69162 | 35132 ft | 521 kts | 158° |
| 2026-05-06 19:16 | 36.11876 | -70.65379 | 35136 ft | 523 kts | 159° |
| 2026-05-06 19:16 | 36.05318 | -70.61620 | 35139 ft | 521 kts | 158° |
| 2026-05-06 19:17 | 35.98756 | -70.57885 | 35147 ft | 522 kts | 158° |
| 2026-05-06 19:17 | 35.92165 | -70.54126 | 35148 ft | 522 kts | 158° |
| 2026-05-06 19:18 | 35.85558 | -70.50365 | 35150 ft | 521 kts | 158° |
| 2026-05-06 19:18 | 35.78957 | -70.46704 | 35148 ft | 520 kts | 161° |
| 2026-05-06 19:19 | 35.72166 | -70.43896 | 35153 ft | 514 kts | 169° |
| 2026-05-06 19:19 | 35.65226 | -70.41991 | 35149 ft | 512 kts | 173° |
| 2026-05-06 19:20 | 35.58223 | -70.40179 | 35146 ft | 515 kts | 173° |
| 2026-05-06 19:20 | 35.51289 | -70.38354 | 35144 ft | 512 kts | 172° |
| 2026-05-06 19:21 | 35.44311 | -70.36507 | 35145 ft | 512 kts | 172° |
| 2026-05-06 19:21 | 35.37331 | -70.34666 | 35145 ft | 513 kts | 172° |
| 2026-05-06 19:22 | 35.30373 | -70.32822 | 35146 ft | 513 kts | 172° |
| 2026-05-06 19:22 | 35.23393 | -70.30985 | 35145 ft | 512 kts | 172° |
| 2026-05-06 19:23 | 35.16437 | -70.29154 | 35150 ft | 513 kts | 172° |
| 2026-05-06 19:23 | 35.09483 | -70.27319 | 35150 ft | 513 kts | 172° |
| 2026-05-06 19:24 | 35.02496 | -70.25490 | 35153 ft | 515 kts | 172° |
| 2026-05-06 19:24 | 34.95471 | -70.23646 | 35152 ft | 514 kts | 172° |
| 2026-05-06 19:25 | 34.88527 | -70.21833 | 35148 ft | 514 kts | 172° |
| 2026-05-06 19:25 | 34.81545 | -70.20009 | 35150 ft | 514 kts | 172° |
| 2026-05-06 19:26 | 34.74543 | -70.18191 | 35159 ft | 515 kts | 172° |
| 2026-05-06 19:26 | 34.67565 | -70.16373 | 35160 ft | 513 kts | 172° |
| 2026-05-06 19:27 | 34.60567 | -70.14560 | 35158 ft | 514 kts | 171° |
| 2026-05-06 19:27 | 34.53581 | -70.12745 | 35166 ft | 514 kts | 172° |
| 2026-05-06 19:28 | 34.46588 | -70.10937 | 35166 ft | 514 kts | 172° |
| 2026-05-06 19:28 | 34.39588 | -70.09132 | 35164 ft | 514 kts | 171° |
| 2026-05-06 19:29 | 34.32584 | -70.07325 | 35167 ft | 514 kts | 171° |
| 2026-05-06 19:29 | 34.25564 | -70.05519 | 35170 ft | 515 kts | 171° |
| 2026-05-06 19:30 | 34.18603 | -70.03725 | 35170 ft | 515 kts | 171° |
| 2026-05-06 19:30 | 34.11575 | -70.01920 | 35175 ft | 516 kts | 171° |
| 2026-05-06 19:31 | 34.04577 | -70.00126 | 35175 ft | 516 kts | 171° |
| 2026-05-06 19:31 | 33.94034 | -69.97437 | 35176 ft | 516 kts | 171° |
| 2026-05-06 19:32 | 33.87010 | -69.95642 | 35175 ft | 516 kts | 171° |
| 2026-05-06 19:32 | 33.79985 | -69.93857 | 35176 ft | 517 kts | 170° |
| 2026-05-06 19:33 | 33.72939 | -69.92066 | 35174 ft | 517 kts | 170° |
| 2026-05-06 19:33 | 33.65941 | -69.90284 | 35175 ft | 516 kts | 171° |
| 2026-05-06 19:34 | 33.58914 | -69.88505 | 35175 ft | 517 kts | 170° |
| 2026-05-06 19:34 | 33.51866 | -69.86721 | 35175 ft | 517 kts | 170° |
| 2026-05-06 19:35 | 33.44855 | -69.84946 | 35176 ft | 517 kts | 171° |
| 2026-05-06 19:35 | 33.37795 | -69.83170 | 35177 ft | 517 kts | 171° |
| 2026-05-06 19:36 | 33.30764 | -69.81394 | 35176 ft | 515 kts | 170° |
| 2026-05-06 19:36 | 33.23773 | -69.79651 | 35176 ft | 515 kts | 170° |
| 2026-05-06 19:37 | 33.16737 | -69.77892 | 35177 ft | 517 kts | 170° |
| 2026-05-06 19:37 | 33.09682 | -69.76125 | 35176 ft | 517 kts | 170° |
| 2026-05-06 19:38 | 33.02676 | -69.74374 | 35177 ft | 516 kts | 169° |
| 2026-05-06 19:38 | 32.95655 | -69.72621 | 35179 ft | 517 kts | 169° |
| 2026-05-06 19:39 | 32.88616 | -69.70864 | 35172 ft | 515 kts | 170° |
| 2026-05-06 19:39 | 32.81595 | -69.69122 | 35175 ft | 517 kts | 169° |
| 2026-05-06 19:40 | 32.74532 | -69.67368 | 35174 ft | 517 kts | 170° |
| 2026-05-06 19:40 | 32.67474 | -69.65618 | 35171 ft | 518 kts | 169° |
| 2026-05-06 19:41 | 32.60405 | -69.63868 | 35171 ft | 519 kts | 170° |
| 2026-05-06 19:41 | 32.53344 | -69.62123 | 35171 ft | 518 kts | 169° |
| 2026-05-06 19:42 | 32.46299 | -69.60385 | 35169 ft | 518 kts | 170° |
| 2026-05-06 19:42 | 32.39240 | -69.58645 | 35168 ft | 519 kts | 170° |
| 2026-05-06 19:43 | 32.32167 | -69.56905 | 35172 ft | 519 kts | 170° |
| 2026-05-06 19:43 | 32.25105 | -69.55170 | 35166 ft | 518 kts | 169° |
| 2026-05-06 19:44 | 32.18077 | -69.53446 | 35168 ft | 519 kts | 169° |
| 2026-05-06 19:44 | 32.11005 | -69.51718 | 35164 ft | 519 kts | 169° |
| 2026-05-06 19:45 | 32.03921 | -69.49984 | 35158 ft | 519 kts | 170° |
| 2026-05-06 19:45 | 31.96826 | -69.48258 | 35161 ft | 520 kts | 169° |
| 2026-05-06 19:46 | 31.89746 | -69.46532 | 35152 ft | 520 kts | 169° |
| 2026-05-06 19:46 | 31.82650 | -69.44806 | 35154 ft | 520 kts | 169° |
| 2026-05-06 19:47 | 31.75570 | -69.43083 | 35158 ft | 521 kts | 169° |
| 2026-05-06 19:47 | 31.68466 | -69.41362 | 35155 ft | 521 kts | 169° |
| 2026-05-06 19:48 | 31.61381 | -69.39646 | 35154 ft | 521 kts | 169° |
| 2026-05-06 19:48 | 31.54293 | -69.37936 | 35156 ft | 521 kts | 169° |
| 2026-05-06 19:49 | 31.47180 | -69.36223 | 35156 ft | 522 kts | 169° |
| 2026-05-06 19:49 | 31.40067 | -69.34501 | 35155 ft | 521 kts | 169° |
| 2026-05-06 19:50 | 31.32916 | -69.32783 | 35156 ft | 522 kts | 170° |
| 2026-05-06 19:50 | 31.25833 | -69.31080 | 35153 ft | 522 kts | 169° |
| 2026-05-06 19:51 | 31.18699 | -69.29371 | 35159 ft | 523 kts | 169° |
| 2026-05-06 19:51 | 31.11595 | -69.27663 | 35152 ft | 522 kts | 170° |
| 2026-05-06 19:52 | 31.04476 | -69.25959 | 35163 ft | 523 kts | 169° |
| 2026-05-06 19:52 | 30.97307 | -69.24247 | 35158 ft | 523 kts | 170° |
| 2026-05-06 19:53 | 30.90172 | -69.22546 | 35150 ft | 524 kts | 169° |
| 2026-05-06 19:53 | 30.83056 | -69.20857 | 35154 ft | 522 kts | 170° |
| 2026-05-06 19:54 | 30.75927 | -69.19170 | 35156 ft | 523 kts | 170° |
| 2026-05-06 19:54 | 30.68833 | -69.17487 | 35157 ft | 523 kts | 170° |
| 2026-05-06 19:55 | 30.61690 | -69.15794 | 35155 ft | 522 kts | 169° |
| 2026-05-06 19:55 | 30.54584 | -69.14114 | 35151 ft | 522 kts | 169° |
| 2026-05-06 19:56 | 30.47447 | -69.12430 | 35149 ft | 522 kts | 170° |
| 2026-05-06 19:56 | 30.40318 | -69.10749 | 35157 ft | 522 kts | 169° |
| 2026-05-06 19:57 | 30.33191 | -69.09071 | 35152 ft | 522 kts | 169° |
| 2026-05-06 19:57 | 30.26053 | -69.07390 | 35157 ft | 523 kts | 169° |
| 2026-05-06 19:58 | 30.18970 | -69.05727 | 35157 ft | 522 kts | 169° |
| 2026-05-06 19:58 | 30.11815 | -69.04053 | 35158 ft | 523 kts | 169° |
| 2026-05-06 19:59 | 30.04733 | -69.02393 | 35147 ft | 523 kts | 169° |
| 2026-05-06 19:59 | 29.97572 | -69.00719 | 35156 ft | 523 kts | 169° |
| 2026-05-06 20:00 | 29.90473 | -68.99061 | 35158 ft | 522 kts | 169° |
| 2026-05-06 20:00 | 29.83352 | -68.97399 | 35152 ft | 522 kts | 169° |
| 2026-05-06 20:01 | 29.76208 | -68.95738 | 35160 ft | 522 kts | 169° |
| 2026-05-06 20:01 | 29.69126 | -68.94093 | 35153 ft | 521 kts | 169° |
| 2026-05-06 20:02 | 29.61998 | -68.92438 | 35163 ft | 521 kts | 169° |
| 2026-05-06 20:02 | 29.54917 | -68.90796 | 35159 ft | 520 kts | 169° |
| 2026-05-06 20:03 | 29.47820 | -68.89154 | 35156 ft | 519 kts | 169° |
| 2026-05-06 20:03 | 29.40734 | -68.87512 | 35157 ft | 519 kts | 169° |
| 2026-05-06 20:04 | 29.33692 | -68.85892 | 35156 ft | 518 kts | 169° |
| 2026-05-06 20:04 | 29.26621 | -68.84261 | 35159 ft | 518 kts | 169° |
| 2026-05-06 20:05 | 29.19547 | -68.82633 | 35154 ft | 518 kts | 169° |
| 2026-05-06 20:05 | 29.12488 | -68.81008 | 35161 ft | 518 kts | 169° |
| 2026-05-06 20:06 | 29.05429 | -68.79388 | 35158 ft | 517 kts | 169° |
| 2026-05-06 20:06 | 28.98348 | -68.77764 | 35153 ft | 517 kts | 169° |
| 2026-05-06 20:07 | 28.91335 | -68.76157 | 35152 ft | 516 kts | 169° |
| 2026-05-06 20:07 | 28.84271 | -68.74541 | 35153 ft | 516 kts | 169° |
| 2026-05-06 20:08 | 28.77247 | -68.72942 | 35143 ft | 515 kts | 169° |
| 2026-05-06 20:08 | 28.70215 | -68.71344 | 35136 ft | 515 kts | 169° |
| 2026-05-06 20:09 | 28.63195 | -68.69750 | 35139 ft | 515 kts | 169° |
| 2026-05-06 20:09 | 28.56164 | -68.68148 | 35139 ft | 514 kts | 169° |
| 2026-05-06 20:10 | 28.52626 | -68.67345 | 35276 ft | 516 kts | 169° |
| 2026-05-06 20:10 | 28.49144 | -68.66556 | 35604 ft | 514 kts | 169° |
| 2026-05-06 20:10 | 28.45630 | -68.65762 | 35928 ft | 512 kts | 169° |
| 2026-05-06 20:10 | 28.42131 | -68.64967 | 36183 ft | 512 kts | 170° |
| 2026-05-06 20:11 | 28.38637 | -68.64173 | 36420 ft | 511 kts | 170° |
| 2026-05-06 20:11 | 28.35176 | -68.63393 | 36643 ft | 511 kts | 169° |
| 2026-05-06 20:11 | 28.31693 | -68.62604 | 36883 ft | 511 kts | 170° |
| 2026-05-06 20:11 | 28.28208 | -68.61816 | 37096 ft | 510 kts | 170° |
| 2026-05-06 20:12 | 28.21260 | -68.60247 | 37124 ft | 510 kts | 170° |
| 2026-05-06 20:12 | 28.14289 | -68.58674 | 37122 ft | 510 kts | 169° |
| 2026-05-06 20:13 | 28.07315 | -68.57102 | 37118 ft | 510 kts | 170° |
| 2026-05-06 20:13 | 28.00397 | -68.55544 | 37118 ft | 509 kts | 169° |
| 2026-05-06 20:14 | 27.93425 | -68.53978 | 37115 ft | 509 kts | 169° |
| 2026-05-06 20:14 | 27.86489 | -68.52429 | 37116 ft | 508 kts | 169° |
| 2026-05-06 20:15 | 27.79544 | -68.50877 | 37117 ft | 508 kts | 170° |
| 2026-05-06 20:15 | 27.72618 | -68.49332 | 37123 ft | 508 kts | 170° |
| 2026-05-06 20:16 | 27.65673 | -68.47780 | 37113 ft | 508 kts | 170° |
| 2026-05-06 20:16 | 27.58750 | -68.46235 | 37115 ft | 509 kts | 170° |
| 2026-05-06 20:17 | 27.51783 | -68.44685 | 37118 ft | 509 kts | 170° |
| 2026-05-06 20:17 | 27.44856 | -68.43144 | 37118 ft | 509 kts | 170° |
| 2026-05-06 20:18 | 27.37872 | -68.41593 | 37119 ft | 508 kts | 169° |
| 2026-05-06 20:18 | 27.30967 | -68.40059 | 37120 ft | 509 kts | 170° |
| 2026-05-06 20:19 | 27.24023 | -68.38519 | 37116 ft | 508 kts | 170° |
| 2026-05-06 20:19 | 27.17072 | -68.36982 | 37118 ft | 509 kts | 170° |
| 2026-05-06 20:20 | 27.10109 | -68.35442 | 37117 ft | 509 kts | 170° |
| 2026-05-06 20:20 | 27.03170 | -68.33910 | 37120 ft | 508 kts | 171° |
| 2026-05-06 20:21 | 26.96231 | -68.32381 | 37113 ft | 508 kts | 171° |
| 2026-05-06 20:21 | 26.89301 | -68.30854 | 37112 ft | 508 kts | 171° |
| 2026-05-06 20:22 | 26.82377 | -68.29330 | 37117 ft | 508 kts | 171° |
| 2026-05-06 20:22 | 26.75416 | -68.27802 | 37111 ft | 507 kts | 171° |
| 2026-05-06 20:23 | 26.68496 | -68.26285 | 37112 ft | 507 kts | 171° |
| 2026-05-06 20:23 | 26.61575 | -68.24768 | 37113 ft | 506 kts | 171° |
| 2026-05-06 20:24 | 26.54691 | -68.23261 | 37109 ft | 506 kts | 171° |
| 2026-05-06 20:24 | 26.47748 | -68.21743 | 37106 ft | 506 kts | 171° |
| 2026-05-06 20:25 | 26.40878 | -68.20243 | 37105 ft | 505 kts | 171° |
| 2026-05-06 20:25 | 26.33975 | -68.18737 | 37100 ft | 505 kts | 171° |
| 2026-05-06 20:26 | 26.27068 | -68.17232 | 37100 ft | 505 kts | 171° |
| 2026-05-06 20:26 | 26.20171 | -68.15733 | 37099 ft | 506 kts | 171° |
| 2026-05-06 20:27 | 26.13253 | -68.14230 | 37098 ft | 505 kts | 171° |
| 2026-05-06 20:27 | 26.06341 | -68.12729 | 37097 ft | 505 kts | 171° |
| 2026-05-06 20:28 | 25.99440 | -68.11235 | 37096 ft | 505 kts | 171° |
| 2026-05-06 20:28 | 25.92545 | -68.09742 | 37095 ft | 504 kts | 170° |
| 2026-05-06 20:29 | 25.85661 | -68.08251 | 37096 ft | 504 kts | 171° |
| 2026-05-06 20:29 | 25.78751 | -68.06758 | 37097 ft | 503 kts | 170° |
| 2026-05-06 20:30 | 25.68495 | -68.04544 | 37097 ft | 502 kts | 171° |
| 2026-05-06 20:31 | 25.61599 | -68.03057 | 37096 ft | 501 kts | 171° |
| 2026-05-06 20:31 | 25.54741 | -68.01581 | 37097 ft | 502 kts | 171° |
| 2026-05-06 20:32 | 25.47945 | -68.00120 | 37096 ft | 500 kts | 170° |
| 2026-05-06 20:32 | 25.41081 | -67.98650 | 37098 ft | 499 kts | 171° |
| 2026-05-06 20:33 | 25.34289 | -67.97201 | 37095 ft | 499 kts | 171° |
| 2026-05-06 20:33 | 25.27454 | -67.95740 | 37097 ft | 499 kts | 170° |
| 2026-05-06 20:34 | 25.20631 | -67.94282 | 37096 ft | 499 kts | 170° |
| 2026-05-06 20:34 | 25.13811 | -67.92823 | 37098 ft | 498 kts | 170° |
| 2026-05-06 20:35 | 25.07013 | -67.91373 | 37096 ft | 497 kts | 170° |
| 2026-05-06 20:35 | 25.00255 | -67.89932 | 37097 ft | 496 kts | 170° |
| 2026-05-06 20:36 | 24.93458 | -67.88486 | 37096 ft | 495 kts | 170° |
| 2026-05-06 20:36 | 24.86673 | -67.87041 | 37096 ft | 496 kts | 170° |
| 2026-05-06 20:37 | 24.79887 | -67.85601 | 37096 ft | 496 kts | 170° |
| 2026-05-06 20:37 | 24.73137 | -67.84167 | 37097 ft | 496 kts | 170° |
| 2026-05-06 20:38 | 24.66357 | -67.82732 | 37098 ft | 495 kts | 170° |
| 2026-05-06 20:38 | 24.59576 | -67.81296 | 37097 ft | 495 kts | 170° |
| 2026-05-06 20:39 | 24.52793 | -67.79861 | 37096 ft | 495 kts | 170° |
| 2026-05-06 20:39 | 24.46055 | -67.78436 | 37097 ft | 495 kts | 170° |
| 2026-05-06 20:40 | 24.39283 | -67.77006 | 37096 ft | 495 kts | 170° |
| 2026-05-06 20:40 | 24.32489 | -67.75570 | 37098 ft | 495 kts | 170° |
| 2026-05-06 20:41 | 24.25758 | -67.74153 | 37096 ft | 494 kts | 170° |
| 2026-05-06 20:41 | 24.18982 | -67.72735 | 37096 ft | 494 kts | 170° |
| 2026-05-06 20:42 | 24.12246 | -67.71323 | 37097 ft | 494 kts | 170° |
| 2026-05-06 20:42 | 24.05478 | -67.69904 | 37096 ft | 494 kts | 170° |
| 2026-05-06 20:43 | 23.98717 | -67.68488 | 37098 ft | 494 kts | 170° |
| 2026-05-06 20:43 | 23.91951 | -67.67072 | 37099 ft | 494 kts | 169° |
| 2026-05-06 20:44 | 23.85230 | -67.65666 | 37098 ft | 493 kts | 169° |
| 2026-05-06 20:44 | 23.78476 | -67.64254 | 37098 ft | 492 kts | 169° |
| 2026-05-06 20:45 | 23.71766 | -67.62853 | 37098 ft | 492 kts | 169° |
| 2026-05-06 20:45 | 23.65039 | -67.61450 | 37098 ft | 492 kts | 170° |
| 2026-05-06 20:46 | 23.58316 | -67.60052 | 37097 ft | 491 kts | 169° |
| 2026-05-06 20:46 | 23.51581 | -67.58650 | 37098 ft | 491 kts | 169° |
| 2026-05-06 20:47 | 23.44898 | -67.57260 | 37098 ft | 490 kts | 169° |
| 2026-05-06 20:47 | 23.38188 | -67.55868 | 37097 ft | 490 kts | 169° |
| 2026-05-06 20:48 | 23.31494 | -67.54479 | 37098 ft | 489 kts | 169° |
| 2026-05-06 20:48 | 23.24799 | -67.53091 | 37098 ft | 489 kts | 169° |
| 2026-05-06 20:49 | 23.18121 | -67.51709 | 37098 ft | 488 kts | 169° |
| 2026-05-06 20:49 | 23.11386 | -67.50317 | 37097 ft | 488 kts | 169° |
| 2026-05-06 20:50 | 23.04744 | -67.48944 | 37098 ft | 488 kts | 169° |
| 2026-05-06 20:50 | 22.98047 | -67.47562 | 37096 ft | 486 kts | 169° |
| 2026-05-06 20:51 | 22.91390 | -67.46188 | 37098 ft | 487 kts | 169° |
| 2026-05-06 20:51 | 22.84758 | -67.44824 | 37095 ft | 486 kts | 169° |
| 2026-05-06 20:52 | 22.78075 | -67.43448 | 37089 ft | 487 kts | 169° |
| 2026-05-06 20:52 | 22.71450 | -67.42087 | 37089 ft | 486 kts | 169° |
| 2026-05-06 20:53 | 22.64792 | -67.40720 | 37089 ft | 486 kts | 169° |
| 2026-05-06 20:53 | 22.58112 | -67.39349 | 37084 ft | 486 kts | 169° |
| 2026-05-06 20:54 | 22.51499 | -67.37991 | 37086 ft | 486 kts | 169° |
| 2026-05-06 20:54 | 22.44839 | -67.36627 | 37083 ft | 486 kts | 169° |
| 2026-05-06 20:55 | 22.38177 | -67.35263 | 37087 ft | 485 kts | 169° |
| 2026-05-06 20:55 | 22.31564 | -67.33909 | 37083 ft | 484 kts | 169° |
| 2026-05-06 20:56 | 22.24928 | -67.32552 | 37079 ft | 485 kts | 170° |
| 2026-05-06 20:56 | 22.18281 | -67.31202 | 37075 ft | 484 kts | 169° |
| 2026-05-06 20:57 | 22.11650 | -67.29855 | 37076 ft | 483 kts | 169° |
| 2026-05-06 20:57 | 22.05043 | -67.28511 | 37078 ft | 483 kts | 169° |
| 2026-05-06 20:58 | 21.98462 | -67.27172 | 37075 ft | 482 kts | 169° |